createdAt,value
2017-12-11T00:00:45.391Z,5.73
2017-12-11T00:03:12.771Z,6.50
2017-12-11T00:05:40.155Z,6.30
2017-12-11T00:08:07.573Z,7.30
2017-12-11T00:10:34.947Z,6.03
2017-12-11T00:13:02.350Z,8.20
2017-12-11T00:15:29.743Z,7.30
2017-12-11T00:17:57.137Z,6.70
2017-12-11T00:20:24.526Z,7.97
2017-12-11T00:22:51.919Z,7.87
2017-12-11T00:25:19.301Z,8.77
2017-12-11T00:27:46.692Z,8.80
2017-12-11T00:30:14.079Z,8.43
2017-12-11T00:32:41.470Z,9.10
2017-12-11T00:35:08.860Z,9.17
2017-12-11T00:40:10.072Z,9.10
2017-12-11T00:42:37.454Z,8.57
2017-12-11T00:45:04.846Z,8.40
2017-12-11T00:47:32.235Z,9.33
2017-12-11T00:49:59.623Z,9.27
2017-12-11T00:52:27.040Z,9.27
2017-12-11T00:54:54.427Z,9.40
2017-12-11T00:57:21.833Z,8.07
2017-12-11T00:59:49.218Z,10.37
2017-12-11T01:02:16.606Z,9.77
2017-12-11T01:04:43.998Z,9.87
2017-12-11T01:07:11.378Z,9.57
2017-12-11T01:09:38.779Z,9.97
2017-12-11T01:12:06.170Z,11.17
2017-12-11T01:14:33.588Z,10.83
2017-12-11T01:17:01.045Z,13.00
2017-12-11T01:19:28.636Z,12.23
2017-12-11T01:21:56.027Z,11.73
2017-12-11T01:24:23.427Z,13.13
2017-12-11T01:26:50.889Z,12.37
2017-12-11T01:29:18.300Z,13.47
2017-12-11T01:31:45.691Z,13.40
2017-12-11T01:34:13.077Z,14.67
2017-12-11T01:36:40.483Z,14.63
2017-12-11T01:39:07.870Z,16.10
2017-12-11T01:41:35.263Z,15.90
2017-12-11T01:44:02.664Z,16.03
2017-12-11T01:46:30.055Z,16.90
2017-12-11T01:48:57.455Z,16.43
2017-12-11T01:51:24.848Z,17.50
2017-12-11T01:53:52.252Z,18.30
2017-12-11T01:56:19.741Z,17.60
2017-12-11T01:58:47.178Z,18.73
2017-12-11T02:01:14.570Z,15.53
2017-12-11T02:03:41.971Z,19.57
2017-12-11T02:06:09.359Z,16.93
2017-12-11T02:08:36.755Z,17.70
2017-12-11T02:11:04.165Z,18.60
2017-12-11T02:13:31.550Z,18.70
2017-12-11T02:15:58.959Z,18.77
2017-12-11T02:18:26.342Z,19.63
2017-12-11T02:20:53.740Z,19.03
2017-12-11T02:23:21.225Z,20.90
2017-12-11T02:25:48.623Z,17.93
2017-12-11T02:28:16.009Z,17.67
2017-12-11T02:30:43.414Z,18.73
2017-12-11T02:33:10.795Z,15.30
2017-12-11T02:35:38.196Z,19.50
2017-12-11T02:38:05.584Z,17.23
2017-12-11T02:40:32.975Z,19.50
2017-12-11T02:43:00.362Z,18.40
2017-12-11T02:45:27.820Z,22.37
2017-12-11T02:47:55.159Z,21.10
2017-12-11T02:50:22.604Z,22.13
2017-12-11T02:52:49.986Z,23.57
2017-12-11T02:55:17.387Z,25.00
2017-12-11T02:57:44.784Z,22.60
2017-12-11T03:00:12.177Z,15.70
2017-12-11T03:02:39.564Z,22.77
2017-12-11T03:05:06.969Z,22.57
2017-12-11T03:07:34.346Z,20.40
2017-12-11T03:10:01.748Z,21.67
2017-12-11T03:12:29.231Z,22.73
2017-12-11T03:14:56.621Z,22.33
2017-12-11T03:17:24.006Z,21.33
2017-12-11T03:19:51.404Z,20.77
2017-12-11T03:22:18.799Z,22.33
2017-12-11T03:24:46.178Z,20.37
2017-12-11T03:27:13.572Z,21.00
2017-12-11T03:29:40.959Z,19.27
2017-12-11T03:32:08.357Z,22.33
2017-12-11T03:34:35.743Z,20.13
2017-12-11T03:37:03.140Z,17.87
2017-12-11T03:39:30.518Z,21.37
2017-12-11T03:41:57.907Z,21.10
2017-12-11T03:44:25.307Z,21.00
2017-12-11T03:46:52.704Z,19.37
2017-12-11T03:49:20.082Z,23.30
2017-12-11T03:51:47.479Z,24.40
2017-12-11T03:54:14.874Z,24.80
2017-12-11T03:56:42.342Z,23.50
2017-12-11T03:59:09.734Z,23.73
2017-12-11T04:01:37.136Z,20.40
2017-12-11T04:04:04.520Z,21.23
2017-12-11T04:06:31.919Z,19.43
2017-12-11T04:08:59.415Z,19.67
2017-12-11T04:11:26.798Z,15.50
2017-12-11T04:13:54.195Z,15.37
2017-12-11T04:16:21.586Z,18.20
2017-12-11T04:18:48.990Z,17.13
2017-12-11T04:21:16.378Z,20.83
2017-12-11T04:23:43.777Z,14.60
2017-12-11T04:26:11.158Z,19.13
2017-12-11T04:28:38.554Z,17.03
2017-12-11T04:31:05.947Z,14.27
2017-12-11T04:33:33.334Z,16.13
2017-12-11T04:36:00.743Z,21.93
2017-12-11T04:38:28.142Z,18.30
2017-12-11T04:40:55.522Z,19.73
2017-12-11T04:43:22.919Z,17.67
2017-12-11T04:45:50.351Z,17.70
2017-12-11T04:48:17.731Z,17.00
2017-12-11T04:50:45.123Z,19.70
2017-12-11T04:53:12.526Z,18.97
2017-12-11T04:55:39.918Z,17.37
2017-12-11T04:58:07.310Z,15.80
2017-12-11T05:00:34.703Z,17.27
2017-12-11T05:03:02.099Z,15.50
2017-12-11T05:05:29.483Z,13.10
2017-12-11T05:07:56.875Z,14.40
2017-12-11T05:10:24.257Z,15.73
2017-12-11T05:12:51.655Z,16.73
2017-12-11T05:15:19.034Z,18.50
2017-12-11T05:17:46.435Z,18.67
2017-12-11T05:20:13.928Z,16.27
2017-12-11T05:22:41.342Z,17.67
2017-12-11T05:25:08.727Z,16.90
2017-12-11T05:27:36.115Z,17.03
2017-12-11T05:30:03.902Z,17.35
2017-12-11T05:32:31.294Z,17.37
2017-12-11T05:34:58.734Z,16.93
2017-12-11T05:37:26.071Z,17.57
2017-12-11T05:39:53.491Z,18.40
2017-12-11T05:42:20.874Z,19.43
2017-12-11T05:44:48.270Z,18.37
2017-12-11T05:47:15.667Z,18.70
2017-12-11T05:49:43.098Z,19.80
2017-12-11T05:52:10.483Z,18.20
2017-12-11T05:54:37.880Z,18.70
2017-12-11T05:57:05.262Z,18.80
2017-12-11T05:59:32.658Z,18.83
2017-12-11T06:02:00.043Z,18.10
2017-12-11T06:04:27.438Z,17.90
2017-12-11T06:06:54.832Z,18.50
2017-12-11T06:09:22.390Z,18.30
2017-12-11T06:11:49.806Z,18.50
2017-12-11T06:14:17.231Z,17.73
2017-12-11T06:16:44.654Z,17.77
2017-12-11T06:19:12.056Z,17.67
2017-12-11T06:21:39.451Z,15.40
2017-12-11T06:24:06.835Z,18.70
2017-12-11T06:26:34.300Z,16.57
2017-12-11T06:29:01.704Z,16.57
2017-12-11T06:31:29.091Z,18.27
2017-12-11T06:33:56.482Z,16.60
2017-12-11T06:36:23.883Z,16.30
2017-12-11T06:38:51.273Z,15.93
2017-12-11T06:41:18.718Z,18.10
2017-12-11T06:43:46.104Z,17.30
2017-12-11T06:46:13.512Z,17.13
2017-12-11T06:48:40.983Z,17.73
2017-12-11T06:51:08.379Z,18.10
2017-12-11T06:53:35.771Z,18.30
2017-12-11T06:56:03.167Z,18.47
2017-12-11T06:58:30.561Z,17.90
2017-12-11T07:00:57.967Z,17.85
2017-12-11T07:03:25.459Z,17.43
2017-12-11T07:05:52.850Z,17.80
2017-12-11T07:08:20.236Z,17.07
2017-12-11T07:10:47.633Z,16.83
2017-12-11T07:13:15.023Z,17.33
2017-12-11T07:15:42.419Z,18.60
2017-12-11T07:18:09.886Z,16.80
2017-12-11T07:20:37.290Z,18.83
2017-12-11T07:23:04.673Z,16.93
2017-12-11T07:25:32.068Z,17.47
2017-12-11T07:27:59.458Z,17.77
2017-12-11T07:30:26.855Z,16.70
2017-12-11T07:32:54.251Z,17.40
2017-12-11T07:35:21.638Z,18.00
2017-12-11T07:37:49.038Z,17.10
2017-12-11T07:40:16.415Z,16.80
2017-12-11T07:42:43.814Z,16.90
2017-12-11T07:45:11.853Z,17.20
2017-12-11T07:47:39.243Z,17.50
2017-12-11T07:50:06.631Z,17.57
2017-12-11T07:52:34.028Z,17.93
2017-12-11T07:55:01.411Z,17.33
2017-12-11T07:57:28.800Z,16.67
2017-12-11T07:59:56.183Z,16.37
2017-12-11T08:02:23.583Z,17.43
2017-12-11T08:04:50.976Z,17.23
2017-12-11T08:07:18.367Z,15.00
2017-12-11T08:09:45.767Z,14.20
2017-12-11T08:12:13.159Z,14.87
2017-12-11T08:14:40.559Z,15.77
2017-12-11T08:17:07.947Z,15.40
2017-12-11T08:19:35.351Z,15.97
2017-12-11T08:22:02.763Z,16.80
2017-12-11T08:24:30.126Z,17.90
2017-12-11T08:26:57.531Z,15.80
2017-12-11T08:29:24.935Z,15.80
2017-12-11T08:31:52.335Z,14.40
2017-12-11T08:34:19.731Z,15.77
2017-12-11T08:36:47.127Z,16.40
2017-12-11T08:39:14.520Z,16.97
2017-12-11T08:41:41.909Z,15.90
2017-12-11T08:44:09.299Z,18.20
2017-12-11T08:46:36.698Z,17.93
2017-12-11T08:49:04.078Z,17.30
2017-12-11T08:51:31.467Z,17.13
2017-12-11T08:53:58.862Z,18.07
2017-12-11T08:56:26.256Z,17.53
2017-12-11T08:58:53.747Z,17.83
2017-12-11T09:01:21.146Z,17.20
2017-12-11T09:03:48.577Z,18.07
2017-12-11T09:06:15.967Z,20.50
2017-12-11T09:08:43.363Z,22.10
2017-12-11T09:11:10.775Z,20.00
2017-12-11T09:13:38.159Z,20.30
2017-12-11T09:16:05.638Z,20.27
2017-12-11T09:18:33.092Z,20.70
2017-12-11T09:21:00.487Z,19.40
2017-12-11T09:23:27.882Z,19.90
2017-12-11T09:25:55.276Z,19.50
2017-12-11T09:28:22.667Z,18.20
2017-12-11T09:30:50.072Z,19.80
2017-12-11T09:33:17.462Z,19.20
2017-12-11T09:35:44.865Z,20.23
2017-12-11T09:38:12.258Z,20.60
2017-12-11T09:40:39.652Z,18.80
2017-12-11T09:43:07.062Z,18.33
2017-12-11T09:45:34.443Z,18.20
2017-12-11T09:48:01.840Z,18.47
2017-12-11T09:50:29.298Z,18.60
2017-12-11T09:52:57.511Z,19.77
2017-12-11T09:55:24.901Z,17.10
2017-12-11T09:57:52.296Z,18.40
2017-12-11T10:00:19.678Z,17.13
2017-12-11T10:02:47.078Z,17.77
2017-12-11T10:05:14.466Z,18.67
2017-12-11T10:07:41.858Z,15.23
2017-12-11T10:10:09.242Z,17.47
2017-12-11T10:12:36.643Z,17.60
2017-12-11T10:15:04.036Z,17.40
2017-12-11T10:17:31.427Z,17.90
2017-12-11T10:19:58.819Z,19.77
2017-12-11T10:22:26.970Z,16.33
2017-12-11T10:24:54.358Z,19.37
2017-12-11T10:27:21.764Z,17.97
2017-12-11T10:29:49.154Z,18.63
2017-12-11T10:32:17.456Z,18.60
2017-12-11T10:34:44.859Z,16.40
2017-12-11T10:37:12.251Z,16.50
2017-12-11T10:39:39.655Z,17.27
2017-12-11T10:42:07.047Z,17.13
2017-12-11T10:44:34.435Z,18.53
2017-12-11T10:47:01.819Z,18.80
2017-12-11T10:49:29.242Z,18.73
2017-12-11T10:51:56.664Z,16.87
2017-12-11T10:54:24.059Z,18.03
2017-12-11T10:56:51.455Z,17.40
2017-12-11T10:59:18.857Z,18.43
2017-12-11T11:01:46.322Z,18.33
2017-12-11T11:04:13.776Z,18.13
2017-12-11T11:06:41.225Z,18.87
2017-12-11T11:09:08.567Z,16.63
2017-12-11T11:11:35.951Z,17.70
2017-12-11T11:14:03.347Z,18.23
2017-12-11T11:16:30.731Z,17.80
2017-12-11T11:18:58.127Z,18.80
2017-12-11T11:21:25.510Z,18.70
2017-12-11T11:23:52.919Z,19.93
2017-12-11T11:26:20.319Z,19.37
2017-12-11T11:28:47.730Z,20.07
2017-12-11T11:31:15.135Z,19.63
2017-12-11T11:33:42.527Z,19.30
2017-12-11T11:36:09.927Z,17.33
2017-12-11T11:38:37.322Z,19.00
2017-12-11T11:41:04.725Z,21.30
2017-12-11T11:43:32.780Z,17.63
2017-12-11T11:46:00.203Z,17.10
2017-12-11T11:48:27.571Z,18.87
2017-12-11T11:50:54.970Z,20.10
2017-12-11T11:53:22.366Z,18.70
2017-12-11T11:55:49.762Z,18.03
2017-12-11T11:58:17.250Z,20.23
2017-12-11T12:00:44.707Z,19.80
2017-12-11T12:03:12.102Z,17.03
2017-12-11T12:05:39.500Z,18.40
2017-12-11T12:08:06.883Z,17.37
2017-12-11T12:10:34.279Z,17.80
2017-12-11T12:13:01.670Z,17.60
2017-12-11T12:15:29.058Z,18.60
2017-12-11T12:17:56.438Z,17.90
2017-12-11T12:20:23.842Z,16.10
2017-12-11T12:22:51.230Z,19.53
2017-12-11T12:25:18.658Z,17.93
2017-12-11T12:27:46.051Z,18.67
2017-12-11T12:30:13.490Z,19.37
2017-12-11T12:32:40.882Z,18.60
2017-12-11T12:35:08.927Z,18.83
2017-12-11T12:37:36.327Z,19.23
2017-12-11T12:40:03.819Z,18.07
2017-12-11T12:42:31.209Z,18.97
2017-12-11T12:44:58.594Z,18.40
2017-12-11T12:47:25.991Z,18.33
2017-12-11T12:49:53.379Z,16.17
2017-12-11T12:52:20.777Z,17.00
2017-12-11T12:54:48.175Z,18.37
2017-12-11T12:57:15.602Z,18.33
2017-12-11T12:59:42.988Z,18.50
2017-12-11T13:02:10.388Z,19.00
2017-12-11T13:04:38.815Z,19.07
2017-12-11T13:07:06.211Z,19.20
2017-12-11T13:09:33.602Z,19.13
2017-12-11T13:12:00.991Z,17.47
2017-12-11T13:14:28.392Z,18.60
2017-12-11T13:16:55.780Z,17.87
2017-12-11T13:19:23.180Z,18.90
2017-12-11T13:21:50.562Z,20.17
2017-12-11T13:24:17.955Z,22.10
2017-12-11T13:26:45.343Z,20.30
2017-12-11T13:29:12.746Z,18.63
2017-12-11T13:31:40.331Z,18.73
2017-12-11T13:34:07.728Z,17.37
2017-12-11T13:36:35.120Z,18.67
2017-12-11T13:39:02.512Z,18.57
2017-12-11T13:41:29.903Z,17.00
2017-12-11T13:43:57.324Z,17.97
2017-12-11T13:46:24.720Z,16.17
2017-12-11T13:48:52.116Z,15.80
2017-12-11T13:51:19.507Z,16.40
2017-12-11T13:53:46.907Z,16.90
2017-12-11T13:56:14.295Z,16.30
2017-12-11T13:58:41.686Z,15.97
2017-12-11T14:01:09.106Z,13.10
2017-12-11T14:03:36.499Z,13.97
2017-12-11T14:06:03.895Z,17.67
2017-12-11T14:08:31.286Z,16.80
2017-12-11T14:10:58.674Z,16.80
2017-12-11T14:13:26.066Z,15.00
2017-12-11T14:15:53.472Z,16.60
2017-12-11T14:18:20.866Z,16.30
2017-12-11T14:20:48.257Z,15.10
2017-12-11T14:23:15.647Z,15.17
2017-12-11T14:25:43.069Z,14.93
2017-12-11T14:28:10.652Z,15.57
2017-12-11T14:30:37.999Z,15.57
2017-12-11T14:33:05.386Z,13.03
2017-12-11T14:35:32.778Z,13.90
2017-12-11T14:38:00.162Z,15.00
2017-12-11T14:40:27.554Z,15.03
2017-12-11T14:42:54.959Z,13.83
2017-12-11T14:45:22.373Z,13.60
2017-12-11T14:47:49.769Z,15.90
2017-12-11T14:50:17.159Z,13.40
2017-12-11T14:52:44.546Z,14.07
2017-12-11T14:55:11.939Z,16.00
2017-12-11T14:57:39.343Z,14.73
2017-12-11T15:00:06.738Z,14.60
2017-12-11T15:02:34.128Z,15.03
2017-12-11T15:05:01.523Z,16.13
2017-12-11T15:07:28.907Z,16.03
2017-12-11T15:09:56.299Z,14.37
2017-12-11T15:12:23.683Z,14.40
2017-12-11T15:14:51.074Z,15.20
2017-12-11T15:17:18.558Z,15.00
2017-12-11T15:19:45.945Z,15.13
2017-12-11T15:22:13.339Z,18.00
2017-12-11T15:24:40.727Z,16.60
2017-12-11T15:27:08.119Z,12.27
2017-12-11T15:29:35.507Z,15.67
2017-12-11T15:32:02.903Z,16.10
2017-12-11T15:34:30.291Z,17.30
2017-12-11T15:36:57.687Z,15.77
2017-12-11T15:39:25.076Z,15.13
2017-12-11T15:41:52.474Z,16.70
2017-12-11T15:44:19.863Z,12.70
2017-12-11T15:46:47.271Z,11.30
2017-12-11T15:49:14.662Z,12.97
2017-12-11T15:51:42.051Z,11.47
2017-12-11T15:54:09.439Z,16.30
2017-12-11T15:56:36.832Z,14.70
2017-12-11T15:59:04.219Z,13.93
2017-12-11T16:01:31.615Z,16.03
2017-12-11T16:03:59.019Z,16.10
2017-12-11T16:06:26.415Z,16.07
2017-12-11T16:08:54.750Z,11.43
2017-12-11T16:11:22.174Z,14.10
2017-12-11T16:13:49.556Z,15.43
2017-12-11T16:16:16.949Z,16.13
2017-12-11T16:18:44.391Z,12.00
2017-12-11T16:21:11.782Z,11.20
2017-12-11T16:23:39.172Z,13.63
2017-12-11T16:26:06.580Z,12.33
2017-12-11T16:28:34.043Z,14.00
2017-12-11T16:31:01.468Z,12.87
2017-12-11T16:33:28.871Z,13.77
2017-12-11T16:35:56.258Z,13.37
2017-12-11T16:38:23.647Z,13.40
2017-12-11T16:40:51.034Z,9.43
2017-12-11T16:43:18.435Z,10.10
2017-12-11T16:45:45.878Z,13.53
2017-12-11T16:48:13.271Z,14.40
2017-12-11T16:50:40.729Z,15.33
2017-12-11T16:53:08.067Z,13.60
2017-12-11T16:55:35.451Z,12.57
2017-12-11T16:58:02.852Z,13.83
2017-12-11T17:00:30.239Z,13.93
2017-12-11T17:02:57.639Z,13.70
2017-12-11T17:05:25.022Z,13.27
2017-12-11T17:07:52.414Z,10.00
2017-12-11T17:10:19.807Z,13.27
2017-12-11T17:12:47.203Z,11.10
2017-12-11T17:15:14.593Z,12.50
2017-12-11T17:17:41.983Z,12.10
2017-12-11T17:20:09.368Z,13.70
2017-12-11T17:22:36.763Z,11.63
2017-12-11T17:25:04.154Z,11.27
2017-12-11T17:27:31.559Z,13.43
2017-12-11T17:29:58.942Z,13.40
2017-12-11T17:32:26.342Z,14.20
2017-12-11T17:34:53.728Z,13.20
2017-12-11T17:37:21.124Z,12.80
2017-12-11T17:39:48.658Z,13.27
2017-12-11T17:42:16.076Z,14.33
2017-12-11T17:44:43.458Z,13.17
2017-12-11T17:47:10.869Z,13.60
2017-12-11T17:49:38.281Z,14.13
2017-12-11T17:52:05.658Z,13.80
2017-12-11T17:54:33.072Z,14.00
2017-12-11T17:57:00.471Z,14.13
2017-12-11T17:59:27.874Z,12.90
2017-12-11T18:01:55.268Z,12.60
2017-12-11T18:04:22.659Z,14.67
2017-12-11T18:06:50.049Z,14.70
2017-12-11T18:09:17.450Z,15.50
2017-12-11T18:11:44.833Z,14.40
2017-12-11T18:14:12.230Z,14.07
2017-12-11T18:16:39.622Z,14.80
2017-12-11T18:19:07.043Z,16.57
2017-12-11T18:21:34.433Z,17.20
2017-12-11T18:24:01.828Z,15.17
2017-12-11T18:26:29.219Z,16.13
2017-12-11T18:28:56.614Z,15.53
2017-12-11T18:31:24.011Z,13.87
2017-12-11T18:33:51.406Z,14.73
2017-12-11T18:36:18.800Z,13.83
2017-12-11T18:38:46.211Z,15.43
2017-12-11T18:41:13.599Z,14.83
2017-12-11T18:43:41.032Z,14.43
2017-12-11T18:46:08.419Z,15.80
2017-12-11T18:48:35.818Z,16.60
2017-12-11T18:51:03.194Z,16.40
2017-12-11T18:53:30.582Z,14.67
2017-12-11T18:55:57.985Z,16.73
2017-12-11T18:58:25.376Z,17.30
2017-12-11T19:00:52.776Z,15.93
2017-12-11T19:03:20.204Z,16.80
2017-12-11T19:05:47.598Z,17.83
2017-12-11T19:08:15.012Z,18.43
2017-12-11T19:10:42.406Z,17.23
2017-12-11T19:13:09.794Z,20.00
2017-12-11T19:15:37.190Z,17.00
2017-12-11T19:18:04.579Z,17.30
2017-12-11T19:20:32.090Z,15.83
2017-12-11T19:22:59.484Z,17.67
2017-12-11T19:25:26.900Z,20.50
2017-12-11T19:27:54.287Z,19.20
2017-12-11T19:30:21.673Z,17.47
2017-12-11T19:32:49.063Z,19.20
2017-12-11T19:35:16.452Z,17.93
2017-12-11T19:37:43.838Z,22.30
2017-12-11T19:40:11.230Z,22.47
2017-12-11T19:42:38.618Z,22.20
2017-12-11T19:45:06.006Z,21.10
2017-12-11T19:47:33.403Z,21.77
2017-12-11T19:50:00.796Z,19.20
2017-12-11T19:52:28.216Z,21.30
2017-12-11T19:54:55.603Z,21.47
2017-12-11T19:57:22.995Z,21.73
2017-12-11T19:59:50.395Z,20.10
2017-12-11T20:02:17.787Z,20.10
2017-12-11T20:04:45.178Z,21.07
2017-12-11T20:07:12.576Z,22.07
2017-12-11T20:09:39.962Z,22.07
2017-12-11T20:12:07.375Z,22.80
2017-12-11T20:14:34.768Z,23.87
2017-12-11T20:17:02.167Z,23.57
2017-12-11T20:19:29.559Z,22.53
2017-12-11T20:21:56.963Z,24.10
2017-12-11T20:24:24.370Z,24.03
2017-12-11T20:26:51.830Z,23.83
2017-12-11T20:29:19.228Z,23.07
2017-12-11T20:31:46.963Z,24.30
2017-12-11T20:34:14.370Z,23.73
2017-12-11T20:36:41.859Z,27.57
2017-12-11T20:39:09.255Z,23.20
2017-12-11T20:41:36.645Z,26.83
2017-12-11T20:44:04.048Z,27.00
2017-12-11T20:46:31.442Z,23.40
2017-12-11T20:48:58.941Z,23.03
2017-12-11T20:51:26.373Z,24.70
2017-12-11T20:53:53.771Z,23.53
2017-12-11T20:56:21.152Z,25.50
2017-12-11T20:58:48.548Z,23.93
2017-12-11T21:01:15.931Z,25.23
2017-12-11T21:03:43.330Z,25.73
2017-12-11T21:06:10.822Z,25.53
2017-12-11T21:08:38.215Z,24.47
2017-12-11T21:11:05.603Z,23.20
2017-12-11T21:13:33.007Z,24.97
2017-12-11T21:16:00.405Z,24.30
2017-12-11T21:18:27.811Z,24.23
2017-12-11T21:23:28.998Z,22.90
2017-12-11T21:25:56.488Z,22.80
2017-12-11T21:28:23.897Z,24.03
2017-12-11T21:30:51.331Z,22.43
2017-12-11T21:33:18.726Z,22.00
2017-12-11T21:35:46.208Z,22.90
2017-12-11T21:38:13.591Z,24.17
2017-12-11T21:40:40.987Z,22.77
2017-12-11T21:43:08.377Z,24.20
2017-12-11T21:45:35.773Z,22.57
2017-12-11T21:48:03.159Z,23.77
2017-12-11T21:50:30.546Z,21.47
2017-12-11T21:52:57.948Z,23.77
2017-12-11T21:55:25.344Z,23.50
2017-12-11T21:57:52.731Z,22.70
2017-12-11T22:00:20.126Z,23.63
2017-12-11T22:02:47.536Z,23.57
2017-12-11T22:05:14.927Z,22.20
2017-12-11T22:07:42.315Z,22.27
2017-12-11T22:10:09.711Z,24.30
2017-12-11T22:12:37.106Z,23.70
2017-12-11T22:15:04.507Z,23.63
2017-12-11T22:17:31.920Z,26.57
2017-12-11T22:19:59.316Z,21.77
2017-12-11T22:22:26.711Z,22.97
2017-12-11T22:24:54.113Z,22.63
2017-12-11T22:27:21.539Z,24.30
2017-12-11T22:29:48.939Z,24.33
2017-12-11T22:32:16.347Z,23.33
2017-12-11T22:34:43.735Z,24.10
2017-12-11T22:37:11.122Z,21.20
2017-12-11T22:39:38.528Z,22.87
2017-12-11T22:42:05.918Z,21.97
2017-12-11T22:44:33.327Z,24.10
2017-12-11T22:47:00.734Z,22.73
2017-12-11T22:49:28.154Z,19.20
2017-12-11T22:51:55.567Z,21.10
2017-12-11T22:54:22.938Z,22.20
2017-12-11T22:56:50.330Z,20.70
2017-12-11T22:59:17.731Z,21.17
2017-12-11T23:01:45.134Z,20.37
2017-12-11T23:04:12.525Z,22.40
2017-12-11T23:06:39.925Z,20.47
2017-12-11T23:09:07.321Z,22.63
2017-12-11T23:11:34.723Z,21.77
2017-12-11T23:14:02.116Z,20.27
2017-12-11T23:16:29.518Z,21.80
2017-12-11T23:18:56.926Z,22.07
2017-12-11T23:21:24.306Z,20.77
2017-12-11T23:23:51.714Z,21.33
2017-12-11T23:26:19.094Z,21.13
2017-12-11T23:28:46.491Z,21.23
2017-12-11T23:31:13.888Z,20.90
2017-12-11T23:33:41.282Z,19.17
2017-12-11T23:36:08.670Z,20.33
2017-12-11T23:38:36.156Z,20.00
2017-12-11T23:41:03.540Z,19.97
2017-12-11T23:43:30.932Z,19.40
2017-12-11T23:45:58.327Z,15.73
2017-12-11T23:48:26.418Z,17.87
2017-12-11T23:50:53.807Z,17.67
2017-12-11T23:53:21.214Z,15.63
2017-12-11T23:55:48.598Z,15.50
2017-12-11T23:58:16.003Z,15.63
